Time;durP1;ratioP1;P1;durP2;ratioP2;P2;SDS_P1;SDS_P2;PMS_P1;PMS_P2;Temp;Humidity;BMP_temperature;BMP_pressure;BME280_temperature;BME280_humidity;BME280_pressure;Samples;Min_cycle;Max_cycle;Signal;HPM_P1;HPM_P2
2021/09/09 00:02:06;;;;;;;6.15;3.38;;;;;;;;;;4937815;29;20016;-86
2021/09/09 00:05:05;;;;;;;7.00;3.63;;;;;;;;;;4938341;29;20024;-87
2021/09/09 00:07:32;;;;;;;7.72;3.80;;;;;;;;;;4937760;29;20032;-88
2021/09/09 00:10:01;;;;;;;7.68;4.00;;;;;;;;;;4937694;29;20534;-86
2021/09/09 00:12:27;;;;;;;8.32;3.90;;;;;;;;;;4937714;29;20055;-89
2021/09/09 00:14:53;;;;;;;6.72;3.80;;;;;;;;;;4937941;29;20115;-89
2021/09/09 00:17:35;;;;;;;5.95;3.67;;;;;;;;;;4939782;29;20023;-85
2021/09/09 00:20:01;;;;;;;6.53;4.00;;;;;;;;;;4918446;29;20039;-88
2021/09/09 00:22:27;;;;;;;8.52;3.63;;;;;;;;;;4933945;29;20091;-86
2021/09/09 00:24:59;;;;;;;8.80;3.55;;;;;;;;;;4939536;29;20062;-87
2021/09/09 00:27:31;;;;;;;12.82;4.10;;;;;;;;;;4938974;29;20410;-89
2021/09/09 00:30:00;;;;;;;11.60;4.10;;;;;;;;;;4932847;29;20111;-87
2021/09/09 00:33:06;;;;;;;7.45;3.83;;;;;;;;;;4934502;29;20038;-88
2021/09/09 00:35:41;;;;;;;6.20;3.70;;;;;;;;;;4877744;29;20049;-81
2021/09/09 00:38:41;;;;;;;11.35;3.80;;;;;;;;;;4880973;29;20029;-86
2021/09/09 00:41:07;;;;;;;6.55;3.35;;;;;;;;;;4879422;29;20066;-82
2021/09/09 00:43:33;;;;;;;6.07;3.50;;;;;;;;;;4879433;29;20060;-89
2021/09/09 00:45:59;;;;;;;7.13;3.90;;;;;;;;;;4883401;29;20052;-87
2021/09/09 00:48:59;;;;;;;7.65;3.83;;;;;;;;;;4881244;29;20029;-86
2021/09/09 00:51:25;;;;;;;7.57;3.70;;;;;;;;;;4879646;29;20041;-87
2021/09/09 00:54:28;;;;;;;13.38;4.32;;;;;;;;;;4879807;29;20075;-86
2021/09/09 00:57:20;;;;;;;9.23;3.70;;;;;;;;;;4851433;29;20676;-89
2021/09/09 00:59:56;;;;;;;6.72;3.67;;;;;;;;;;4837964;29;20034;-87
2021/09/09 01:02:22;;;;;;;11.57;4.22;;;;;;;;;;4857386;29;20033;-88
2021/09/09 01:04:49;;;;;;;7.70;3.88;;;;;;;;;;4814299;29;20047;-82
2021/09/09 01:07:15;;;;;;;7.10;3.75;;;;;;;;;;4812551;29;20529;-84
2021/09/09 01:09:47;;;;;;;8.23;3.88;;;;;;;;;;4831370;29;20109;-78
2021/09/09 01:12:14;;;;;;;9.85;3.83;;;;;;;;;;4893534;29;20040;-83
2021/09/09 01:14:40;;;;;;;6.88;3.88;;;;;;;;;;4920794;29;20040;-72
2021/09/09 01:17:07;;;;;;;10.00;4.03;;;;;;;;;;4921885;29;20071;-81
2021/09/09 01:19:35;;;;;;;8.90;3.97;;;;;;;;;;4907607;29;20033;-70
2021/09/09 01:28:05;;;;;;;11.32;4.20;;;;;;;;;;4901924;29;20128;-71
2021/09/09 01:30:32;;;;;;;8.63;4.70;;;;;;;;;;4901639;29;20025;-73
2021/09/09 01:33:01;;;;;;;8.80;4.00;;;;;;;;;;4896492;29;20040;-71
2021/09/09 01:35:27;;;;;;;8.65;4.22;;;;;;;;;;4922464;29;20092;-71
2021/09/09 01:38:15;;;;;;;;;;;;;;;;;;;;;
2021/09/09 01:41:08;;;;;;;8.00;4.00;;;;;;;;;;4921087;29;20033;-84
2021/09/09 01:43:54;;;;;;;5.63;3.97;;;;;;;;;;4896025;29;20041;-86
2021/09/09 01:46:20;;;;;;;9.02;4.25;;;;;;;;;;4919707;29;20060;-83
2021/09/09 01:48:46;;;;;;;9.27;4.20;;;;;;;;;;4915957;29;20052;-81
2021/09/09 01:51:12;;;;;;;9.43;4.25;;;;;;;;;;4923034;29;20110;-71
2021/09/09 01:53:38;;;;;;;7.57;4.18;;;;;;;;;;4921785;29;20034;-71
2021/09/09 01:58:49;;;;;;;8.65;4.43;;;;;;;;;;5355693;23;20042;-71
2021/09/09 02:01:16;;;;;;;9.52;4.63;;;;;;;;;;4999172;28;20071;-71
2021/09/09 02:03:42;;;;;;;9.90;4.50;;;;;;;;;;4964093;28;20071;-71
2021/09/09 02:07:00;;;;;;;10.63;4.93;;;;;;;;;;4978997;28;20026;-73
2021/09/09 02:09:19;;;;;;;6.70;4.20;;;;;;;;;;4975863;28;20008;-71
2021/09/09 02:12:10;;;;;;;12.70;4.68;;;;;;;;;;4978107;28;20019;-74
2021/09/09 02:14:36;;;;;;;8.65;4.68;;;;;;;;;;4962839;28;20054;-71
2021/09/09 02:17:02;;;;;;;6.38;4.28;;;;;;;;;;4980497;28;20035;-72
2021/09/09 02:19:28;;;;;;;13.18;4.50;;;;;;;;;;4980624;28;20022;-71
2021/09/09 02:27:59;;;;;;;7.45;4.50;;;;;;;;;;4996549;28;20034;-71
2021/09/09 02:30:26;;;;;;;8.13;4.60;;;;;;;;;;4989491;28;20039;-72
2021/09/09 02:32:52;;;;;;;10.65;5.03;;;;;;;;;;4980396;28;20070;-71
2021/09/09 02:35:18;;;;;;;12.07;4.50;;;;;;;;;;4987219;28;20011;-71
2021/09/09 02:37:45;;;;;;;8.40;4.10;;;;;;;;;;4999050;28;20018;-71
2021/09/09 02:40:12;;;;;;;8.40;4.53;;;;;;;;;;4997419;28;20063;-71
2021/09/09 02:42:39;;;;;;;8.38;4.63;;;;;;;;;;4997635;28;20003;-72
2021/09/09 02:45:07;;;;;;;10.43;4.82;;;;;;;;;;4998289;28;20015;-74
2021/09/09 02:47:33;;;;;;;8.70;4.30;;;;;;;;;;4999024;28;20015;-72
2021/09/09 02:50:06;;;;;;;8.30;4.20;;;;;;;;;;4998123;28;20014;-76
2021/09/09 02:52:50;;;;;;;8.55;4.00;;;;;;;;;;4938174;29;20020;-73
2021/09/09 02:55:24;;;;;;;9.43;4.20;;;;;;;;;;4937053;29;20052;-73
2021/09/09 02:57:50;;;;;;;20.30;5.45;;;;;;;;;;4939763;29;20036;-73
2021/09/09 03:03:02;;;;;;;8.77;4.53;;;;;;;;;;4963639;23;20053;-72
2021/09/09 03:05:28;;;;;;;7.90;4.30;;;;;;;;;;4979193;28;20024;-72
2021/09/09 03:07:54;;;;;;;8.63;4.18;;;;;;;;;;4955689;28;20012;-74
2021/09/09 03:10:23;;;;;;;9.02;4.47;;;;;;;;;;4971527;28;20038;-72
2021/09/09 03:12:49;;;;;;;9.70;4.53;;;;;;;;;;4959278;29;20039;-71
2021/09/09 03:15:15;;;;;;;7.97;4.20;;;;;;;;;;4976963;28;20023;-71
2021/09/09 03:17:41;;;;;;;10.10;4.50;;;;;;;;;;4973585;28;20015;-72
2021/09/09 03:20:07;;;;;;;8.75;4.32;;;;;;;;;;4961079;29;20011;-71
2021/09/09 03:22:33;;;;;;;8.52;4.18;;;;;;;;;;4975421;28;20011;-72
2021/09/09 03:25:01;;;;;;;9.98;4.00;;;;;;;;;;4979254;29;20018;-72
2021/09/09 03:27:27;;;;;;;8.27;4.07;;;;;;;;;;4996285;28;20049;-71
2021/09/09 03:29:54;;;;;;;13.73;4.43;;;;;;;;;;4954459;29;20150;-71
2021/09/09 03:32:25;;;;;;;9.68;4.30;;;;;;;;;;4959454;29;20019;-71
2021/09/09 03:35:23;;;;;;;6.50;4.30;;;;;;;;;;4966744;28;20058;-79
2021/09/09 03:37:54;;;;;;;12.50;4.15;;;;;;;;;;5277224;23;20053;-71
2021/09/09 03:40:20;;;;;;;10.05;4.70;;;;;;;;;;4996234;28;20026;-71
2021/09/09 03:42:47;;;;;;;6.63;4.20;;;;;;;;;;4998751;28;20031;-73
2021/09/09 03:45:13;;;;;;;10.07;4.10;;;;;;;;;;5001437;28;20013;-72
2021/09/09 03:47:39;;;;;;;6.88;4.30;;;;;;;;;;4998123;28;20094;-72
2021/09/09 03:50:05;;;;;;;11.70;5.25;;;;;;;;;;5001582;28;20039;-78
2021/09/09 03:52:32;;;;;;;7.30;4.38;;;;;;;;;;5000098;28;20042;-75
2021/09/09 03:55:18;;;;;;;8.93;4.30;;;;;;;;;;5000874;28;20046;-72
2021/09/09 03:57:44;;;;;;;9.05;4.43;;;;;;;;;;5000548;28;20011;-72
2021/09/09 04:02:59;;;;;;;11.90;4.53;;;;;;;;;;5101257;23;20119;-77
2021/09/09 04:05:25;;;;;;;8.98;3.95;;;;;;;;;;5000716;28;20027;-72
2021/09/09 04:07:55;;;;;;;11.93;4.15;;;;;;;;;;4985108;28;20025;-74
2021/09/09 04:10:21;;;;;;;10.48;4.38;;;;;;;;;;5001422;28;20047;-72
2021/09/09 04:12:47;;;;;;;12.80;3.95;;;;;;;;;;5000565;28;20018;-72
2021/09/09 04:15:13;;;;;;;9.63;4.10;;;;;;;;;;5001982;28;20031;-71
2021/09/09 04:17:39;;;;;;;9.45;4.30;;;;;;;;;;4980939;28;20029;-72
2021/09/09 04:20:06;;;;;;;11.05;4.40;;;;;;;;;;5001459;28;20018;-71
2021/09/09 04:22:32;;;;;;;9.27;4.15;;;;;;;;;;4997310;28;20022;-72
2021/09/09 04:24:58;;;;;;;6.13;4.00;;;;;;;;;;5000899;28;20007;-71
2021/09/09 04:27:24;;;;;;;6.75;4.10;;;;;;;;;;4998842;28;20017;-71
2021/09/09 04:30:34;;;;;;;7.80;4.00;;;;;;;;;;4997460;28;20082;-71
2021/09/09 04:33:00;;;;;;;8.55;4.00;;;;;;;;;;4983669;28;20023;-71
2021/09/09 04:36:01;;;;;;;8.15;4.00;;;;;;;;;;5000486;28;20015;-72
2021/09/09 04:42:18;;;;;;;8.75;3.90;;;;;;;;;;4898350;29;20072;-77
2021/09/09 04:44:44;;;;;;;10.57;4.45;;;;;;;;;;4845050;29;20034;-69
2021/09/09 04:47:10;;;;;;;13.43;4.28;;;;;;;;;;4841975;29;20037;-71
2021/09/09 04:49:36;;;;;;;7.05;3.88;;;;;;;;;;4841214;29;20057;-66
2021/09/09 04:52:02;;;;;;;13.35;4.32;;;;;;;;;;4844544;29;20045;-68
2021/09/09 04:54:28;;;;;;;10.65;4.15;;;;;;;;;;4836697;29;20054;-71
2021/09/09 04:56:54;;;;;;;7.30;3.80;;;;;;;;;;4827543;29;20034;-74
2021/09/09 04:59:22;;;;;;;8.75;3.90;;;;;;;;;;4833260;29;20053;-76
2021/09/09 05:01:48;;;;;;;17.08;4.40;;;;;;;;;;4841326;29;20442;-78
2021/09/09 05:04:14;;;;;;;11.30;4.25;;;;;;;;;;4826992;29;20545;-77
2021/09/09 05:06:40;;;;;;;7.97;3.65;;;;;;;;;;4834089;29;20025;-68
2021/09/09 05:09:06;;;;;;;10.50;3.90;;;;;;;;;;4850948;29;20065;-66
2021/09/09 05:11:32;;;;;;;10.23;4.00;;;;;;;;;;4852290;29;22256;-67
2021/09/09 05:14:01;;;;;;;10.80;3.97;;;;;;;;;;4868230;29;20054;-74
2021/09/09 05:16:27;;;;;;;8.20;4.13;;;;;;;;;;4866575;29;20029;-72
2021/09/09 05:18:53;;;;;;;9.43;4.00;;;;;;;;;;4881155;29;20564;-78
2021/09/09 05:21:19;;;;;;;8.88;4.20;;;;;;;;;;4935390;28;20555;-75
2021/09/09 05:23:46;;;;;;;11.43;4.38;;;;;;;;;;4989455;28;20038;-73
2021/09/09 05:26:24;;;;;;;9.45;4.20;;;;;;;;;;4989852;28;20023;-74
2021/09/09 05:28:51;;;;;;;8.93;4.10;;;;;;;;;;4983668;28;20034;-69
2021/09/09 05:31:17;;;;;;;14.30;4.13;;;;;;;;;;4968109;28;20043;-73
2021/09/09 05:33:43;;;;;;;11.82;3.67;;;;;;;;;;4984498;28;20101;-71
2021/09/09 05:36:09;;;;;;;17.27;5.07;;;;;;;;;;4988510;28;20018;-67
2021/09/09 05:38:35;;;;;;;8.52;4.22;;;;;;;;;;4981114;28;20434;-67
2021/09/09 05:41:01;;;;;;;8.30;4.03;;;;;;;;;;4985350;28;20030;-74
2021/09/09 05:43:27;;;;;;;8.23;3.92;;;;;;;;;;4983854;28;20066;-76
2021/09/09 05:45:54;;;;;;;10.25;3.85;;;;;;;;;;4982202;28;20031;-67
2021/09/09 05:48:20;;;;;;;8.15;3.95;;;;;;;;;;4980029;28;20026;-77
2021/09/09 05:50:46;;;;;;;11.02;3.95;;;;;;;;;;4964762;28;20385;-80
2021/09/09 05:53:14;;;;;;;12.05;3.92;;;;;;;;;;4977028;28;20026;-72
2021/09/09 05:55:40;;;;;;;9.38;3.75;;;;;;;;;;4976344;28;20149;-74
2021/09/09 05:58:09;;;;;;;11.95;4.00;;;;;;;;;;4977938;28;20118;-76
2021/09/09 06:00:35;;;;;;;9.60;4.40;;;;;;;;;;4951391;29;20053;-84
2021/09/09 06:03:02;;;;;;;12.05;4.30;;;;;;;;;;4966836;28;20057;-78
2021/09/09 06:05:28;;;;;;;12.90;3.70;;;;;;;;;;4973319;28;20130;-84
2021/09/09 06:07:54;;;;;;;11.05;3.83;;;;;;;;;;4973076;28;20027;-67
2021/09/09 06:10:20;;;;;;;14.25;3.97;;;;;;;;;;4972673;28;20030;-70
2021/09/09 06:12:47;;;;;;;14.43;4.40;;;;;;;;;;4973264;28;20019;-78
2021/09/09 06:15:13;;;;;;;11.93;4.25;;;;;;;;;;4972200;28;20101;-65
2021/09/09 06:17:39;;;;;;;14.23;3.97;;;;;;;;;;4972980;28;20026;-88
2021/09/09 06:20:05;;;;;;;15.60;4.10;;;;;;;;;;4972384;28;20489;-91
2021/09/09 06:22:31;;;;;;;9.13;3.70;;;;;;;;;;4973620;28;20034;-75
2021/09/09 06:24:57;;;;;;;11.70;4.00;;;;;;;;;;4973952;28;20027;-89
2021/09/09 06:27:23;;;;;;;8.50;3.88;;;;;;;;;;4973515;28;20485;-90
2021/09/09 06:29:49;;;;;;;11.75;4.45;;;;;;;;;;4974119;28;20098;-87
2021/09/09 06:32:15;;;;;;;12.50;4.05;;;;;;;;;;4972236;28;20030;-90
2021/09/09 06:34:44;;;;;;;9.82;4.00;;;;;;;;;;4971191;28;20113;-78
2021/09/09 06:37:10;;;;;;;10.50;3.85;;;;;;;;;;4967187;28;20121;-82
2021/09/09 06:39:36;;;;;;;11.60;3.80;;;;;;;;;;4971910;28;20081;-89
2021/09/09 06:42:03;;;;;;;6.38;3.58;;;;;;;;;;4971584;28;20033;-81
2021/09/09 06:44:29;;;;;;;11.80;4.13;;;;;;;;;;4973182;28;20485;-79
2021/09/09 06:46:55;;;;;;;8.40;3.70;;;;;;;;;;4972144;28;20027;-80
2021/09/09 06:49:24;;;;;;;13.07;4.13;;;;;;;;;;4967291;28;20074;-77
2021/09/09 06:51:50;;;;;;;8.68;3.67;;;;;;;;;;4971097;28;20019;-71
2021/09/09 06:54:48;;;;;;;10.00;4.00;;;;;;;;;;4971124;28;20027;-78
2021/09/09 06:57:14;;;;;;;11.48;3.78;;;;;;;;;;4947700;28;20488;-74
2021/09/09 06:59:40;;;;;;;13.10;3.97;;;;;;;;;;4977012;28;20023;-89
2021/09/09 07:02:21;;;;;;;9.35;3.40;;;;;;;;;;4953527;28;20121;-78
2021/09/09 07:04:47;;;;;;;15.57;3.97;;;;;;;;;;4975564;28;20054;-78
2021/09/09 07:07:13;;;;;;;7.53;3.60;;;;;;;;;;4974794;28;20507;-83
2021/09/09 07:10:11;;;;;;;11.52;3.97;;;;;;;;;;4974921;28;20094;-74
2021/09/09 07:12:45;;;;;;;11.93;3.88;;;;;;;;;;4972342;28;20035;-87
2021/09/09 07:15:11;;;;;;;9.20;3.75;;;;;;;;;;4948900;29;20051;-80
2021/09/09 07:17:51;;;;;;;14.77;3.75;;;;;;;;;;4973097;28;20054;-68
2021/09/09 07:23:21;;;;;;;8.45;3.65;;;;;;;;;;4972631;28;20039;-78
2021/09/09 07:26:13;;;;;;;13.85;3.90;;;;;;;;;;4975597;28;20493;-86
2021/09/09 07:28:39;;;;;;;10.10;3.60;;;;;;;;;;4958065;28;20049;-69
2021/09/09 07:31:05;;;;;;;12.27;4.00;;;;;;;;;;4974606;28;20019;-73
2021/09/09 07:33:32;;;;;;;16.25;4.00;;;;;;;;;;4975040;28;20117;-70
2021/09/09 07:35:58;;;;;;;10.52;3.90;;;;;;;;;;4970027;28;20023;-73
2021/09/09 07:38:24;;;;;;;9.07;3.40;;;;;;;;;;4975746;28;20444;-73
2021/09/09 07:40:50;;;;;;;7.53;3.38;;;;;;;;;;4971463;28;20019;-72
2021/09/09 07:43:16;;;;;;;8.35;3.63;;;;;;;;;;4968111;28;20019;-77
2021/09/09 07:45:42;;;;;;;9.05;3.42;;;;;;;;;;4973748;28;20465;-84
2021/09/09 07:48:08;;;;;;;10.30;3.72;;;;;;;;;;4969483;28;20035;-80
2021/09/09 07:50:34;;;;;;;9.55;3.42;;;;;;;;;;4974443;28;20609;-69
2021/09/09 07:53:02;;;;;;;11.18;3.55;;;;;;;;;;4974326;28;20042;-67
2021/09/09 07:55:28;;;;;;;34.20;5.35;;;;;;;;;;4974422;28;20057;-78
2021/09/09 07:58:00;;;;;;;13.77;4.00;;;;;;;;;;4972984;28;20037;-83
2021/09/09 08:00:26;;;;;;;15.32;4.45;;;;;;;;;;4973607;28;20027;-86
2021/09/09 08:02:52;;;;;;;12.27;3.67;;;;;;;;;;4975335;28;20548;-90
2021/09/09 08:05:38;;;;;;;11.48;3.75;;;;;;;;;;4973065;28;20458;-88
2021/09/09 08:08:05;;;;;;;10.63;4.15;;;;;;;;;;4952787;28;20042;-79
2021/09/09 08:10:31;;;;;;;21.45;4.13;;;;;;;;;;4974794;28;20051;-85
2021/09/09 08:13:08;;;;;;;7.35;3.63;;;;;;;;;;4975986;28;20054;-89
2021/09/09 08:15:37;;;;;;;46.92;6.88;;;;;;;;;;4959010;28;20129;-84
2021/09/09 08:18:04;;;;;;;7.65;3.90;;;;;;;;;;4955063;28;20030;-89
2021/09/09 08:20:30;;;;;;;24.88;4.55;;;;;;;;;;4976017;28;20031;-78
2021/09/09 08:22:56;;;;;;;11.77;3.88;;;;;;;;;;4975584;28;20492;-89
2021/09/09 08:25:22;;;;;;;12.77;3.47;;;;;;;;;;4975865;28;20031;-86
2021/09/09 08:27:48;;;;;;;8.65;3.33;;;;;;;;;;4973259;28;20026;-89
2021/09/09 08:30:14;;;;;;;9.73;3.72;;;;;;;;;;4976161;28;20027;-86
2021/09/09 08:32:52;;;;;;;8.93;3.42;;;;;;;;;;4964521;28;20378;-89
2021/09/09 08:35:18;;;;;;;9.55;3.70;;;;;;;;;;4958426;28;20062;-85
2021/09/09 08:37:44;;;;;;;9.15;3.45;;;;;;;;;;4973729;28;20027;-82
2021/09/09 08:40:10;;;;;;;12.57;3.70;;;;;;;;;;4975064;28;20043;-88
2021/09/09 08:42:38;;;;;;;10.13;3.28;;;;;;;;;;4975242;28;20059;-90
2021/09/09 08:45:05;;;;;;;9.52;2.97;;;;;;;;;;4975599;28;20106;-89
2021/09/09 08:48:20;;;;;;;12.30;3.53;;;;;;;;;;4977820;28;20414;-79
2021/09/09 08:50:47;;;;;;;10.40;3.47;;;;;;;;;;4931175;29;20107;-84
2021/09/09 08:53:15;;;;;;;15.75;3.55;;;;;;;;;;4926435;29;20040;-87
2021/09/09 08:55:43;;;;;;;15.68;3.55;;;;;;;;;;4935008;29;20443;-84
2021/09/09 08:58:47;;;;;;;14.77;3.50;;;;;;;;;;4936968;29;20534;-86
2021/09/09 09:01:24;;;;;;;11.35;3.40;;;;;;;;;;4878187;29;20045;-77
2021/09/09 09:03:54;;;;;;;12.85;3.25;;;;;;;;;;4890785;29;20416;-86
2021/09/09 09:06:26;;;;;;;11.15;3.63;;;;;;;;;;4889402;29;20044;-77
2021/09/09 09:08:52;;;;;;;16.10;3.35;;;;;;;;;;4899462;29;20028;-79
2021/09/09 09:11:56;;;;;;;7.28;3.30;;;;;;;;;;4901609;29;20123;-79
2021/09/09 09:14:51;;;;;;;18.85;4.20;;;;;;;;;;4825774;29;20050;-78
2021/09/09 09:17:51;;;;;;;12.75;3.65;;;;;;;;;;4840123;29;20069;-86
2021/09/09 09:20:36;;;;;;;16.52;3.90;;;;;;;;;;4840407;29;20510;-83
2021/09/09 09:23:09;;;;;;;11.15;3.45;;;;;;;;;;4848829;29;20536;-79
2021/09/09 09:25:48;;;;;;;8.07;3.30;;;;;;;;;;4847702;29;20050;-87
2021/09/09 09:28:14;;;;;;;14.13;3.47;;;;;;;;;;4843358;29;20046;-84
2021/09/09 09:30:59;;;;;;;20.05;3.85;;;;;;;;;;4840905;29;20050;-90
2021/09/09 09:33:31;;;;;;;9.82;4.00;;;;;;;;;;4844251;29;20076;-92
2021/09/09 09:36:46;;;;;;;;;;;;;;;;;;;;;
2021/09/09 09:39:13;;;;;;;15.45;3.90;;;;;;;;;;4876766;29;20044;-78
2021/09/09 09:44:47;;;;;;;10.60;3.63;;;;;;;;;;4840580;29;20473;-87
2021/09/09 09:47:19;;;;;;;9.68;3.50;;;;;;;;;;4841535;29;20243;-84
2021/09/09 09:49:54;;;;;;;12.77;3.85;;;;;;;;;;4876726;29;20067;-89
2021/09/09 09:52:23;;;;;;;10.48;3.53;;;;;;;;;;4858197;29;20043;-90
2021/09/09 09:54:59;;;;;;;15.48;3.70;;;;;;;;;;4858302;29;20202;-88
2021/09/09 09:57:51;;;;;;;8.10;3.75;;;;;;;;;;4858556;29;20068;-83
2021/09/09 10:00:17;;;;;;;15.00;3.58;;;;;;;;;;4856776;29;20046;-88
2021/09/09 10:02:43;;;;;;;11.50;3.38;;;;;;;;;;4858722;29;20056;-83
2021/09/09 10:05:10;;;;;;;8.63;3.75;;;;;;;;;;4857700;29;20500;-80
2021/09/09 10:07:37;;;;;;;10.68;3.53;;;;;;;;;;4857772;29;20052;-88
2021/09/09 10:10:05;;;;;;;5.70;3.50;;;;;;;;;;4858251;29;20063;-86
2021/09/09 10:12:32;;;;;;;8.00;3.20;;;;;;;;;;4858287;29;20082;-83
2021/09/09 10:15:00;;;;;;;12.80;4.15;;;;;;;;;;4861221;29;20073;-84
2021/09/09 10:17:28;;;;;;;12.20;4.57;;;;;;;;;;4876632;29;20041;-88
2021/09/09 10:19:56;;;;;;;9.65;4.45;;;;;;;;;;4876266;29;20091;-85
2021/09/09 10:22:23;;;;;;;8.50;4.00;;;;;;;;;;4922275;29;20040;-88
2021/09/09 10:24:50;;;;;;;17.20;4.43;;;;;;;;;;4933273;29;20620;-88
2021/09/09 10:27:23;;;;;;;10.20;4.03;;;;;;;;;;4927297;29;20043;-91
2021/09/09 10:29:52;;;;;;;11.18;3.38;;;;;;;;;;4949907;28;20035;-88
2021/09/09 10:32:34;;;;;;;7.57;3.33;;;;;;;;;;4972464;28;20385;-80
2021/09/09 10:35:26;;;;;;;8.65;4.13;;;;;;;;;;4973463;28;20033;-88
2021/09/09 10:37:59;;;;;;;15.23;5.05;;;;;;;;;;4971567;28;20018;-89
2021/09/09 10:40:29;;;;;;;10.55;5.25;;;;;;;;;;4955229;28;20035;-88
2021/09/09 10:43:06;;;;;;;10.00;4.40;;;;;;;;;;4969302;28;20027;-74
2021/09/09 10:45:35;;;;;;;12.95;3.72;;;;;;;;;;4972253;28;20085;-78
2021/09/09 10:48:19;;;;;;;11.25;3.40;;;;;;;;;;4970727;28;20023;-79
2021/09/09 10:50:57;;;;;;;8.35;3.40;;;;;;;;;;4970307;28;20019;-68
2021/09/09 10:53:46;;;;;;;10.27;4.00;;;;;;;;;;4967554;28;20050;-77
2021/09/09 10:56:14;;;;;;;11.80;3.88;;;;;;;;;;4912853;29;20522;-79
2021/09/09 10:58:41;;;;;;;7.80;3.25;;;;;;;;;;4912163;29;20402;-77
2021/09/09 11:01:08;;;;;;;17.00;4.25;;;;;;;;;;4913005;29;20175;-76
2021/09/09 11:03:40;;;;;;;9.63;3.33;;;;;;;;;;4912243;29;20076;-73
2021/09/09 11:06:34;;;;;;;12.32;3.60;;;;;;;;;;4912390;29;20103;-74
2021/09/09 11:09:12;;;;;;;10.25;3.63;;;;;;;;;;4910269;29;20073;-73
2021/09/09 11:11:47;;;;;;;6.35;3.50;;;;;;;;;;4912631;29;20114;-80
2021/09/09 11:14:39;;;;;;;;;;;;;;;;;;;;;
2021/09/09 11:17:05;;;;;;;8.55;3.42;;;;;;;;;;4912422;29;20039;-82
2021/09/09 11:19:34;;;;;;;14.32;3.88;;;;;;;;;;4913861;29;20044;-72
2021/09/09 11:22:02;;;;;;;18.52;4.18;;;;;;;;;;4914245;29;20032;-68
2021/09/09 11:24:33;;;;;;;9.15;3.53;;;;;;;;;;4910473;29;20127;-67
2021/09/09 11:26:59;;;;;;;8.65;3.75;;;;;;;;;;4909798;29;20070;-67
2021/09/09 11:29:25;;;;;;;10.35;3.72;;;;;;;;;;4912265;29;20064;-80
2021/09/09 11:31:52;;;;;;;11.63;3.50;;;;;;;;;;4917707;29;20038;-82
2021/09/09 11:34:25;;;;;;;10.25;3.55;;;;;;;;;;4969973;28;20054;-85
2021/09/09 11:36:53;;;;;;;11.02;3.40;;;;;;;;;;4972464;28;20066;-63
2021/09/09 11:39:24;;;;;;;9.15;3.17;;;;;;;;;;4972862;28;20496;-86
2021/09/09 11:41:54;;;;;;;9.63;3.28;;;;;;;;;;4970933;28;20425;-68
2021/09/09 11:44:27;;;;;;;6.43;3.25;;;;;;;;;;4975231;28;20433;-87
2021/09/09 11:46:54;;;;;;;10.70;3.83;;;;;;;;;;4971388;28;20093;-85
2021/09/09 11:49:21;;;;;;;12.27;3.33;;;;;;;;;;4975933;28;20042;-77
2021/09/09 11:51:48;;;;;;;7.15;3.17;;;;;;;;;;4971303;28;20714;-73
2021/09/09 11:54:31;;;;;;;9.85;3.28;;;;;;;;;;4976110;28;20098;-85
2021/09/09 11:57:10;;;;;;;6.53;3.28;;;;;;;;;;4970249;28;20504;-82
2021/09/09 11:59:38;;;;;;;8.32;3.45;;;;;;;;;;4971736;28;20464;-85
2021/09/09 12:02:07;;;;;;;8.05;3.78;;;;;;;;;;4974545;28;20031;-84
2021/09/09 12:04:38;;;;;;;11.35;3.78;;;;;;;;;;4975244;28;20046;-79
2021/09/09 12:07:06;;;;;;;8.82;3.22;;;;;;;;;;4973946;28;20104;-83
2021/09/09 12:09:57;;;;;;;9.23;3.60;;;;;;;;;;4974644;28;20026;-79
2021/09/09 12:12:24;;;;;;;10.63;3.60;;;;;;;;;;4933400;29;20042;-68
2021/09/09 12:15:00;;;;;;;8.27;3.15;;;;;;;;;;4931369;29;20119;-66
2021/09/09 12:17:26;;;;;;;9.15;3.65;;;;;;;;;;4933129;29;20035;-71
2021/09/09 12:19:52;;;;;;;33.25;4.93;;;;;;;;;;4934499;29;20490;-68
2021/09/09 12:22:18;;;;;;;15.68;3.33;;;;;;;;;;4934637;29;20379;-67
2021/09/09 12:24:45;;;;;;;8.65;3.42;;;;;;;;;;4932871;29;20136;-68
2021/09/09 12:27:15;;;;;;;12.27;3.40;;;;;;;;;;4933596;29;20082;-68
2021/09/09 12:29:44;;;;;;;5.60;3.50;;;;;;;;;;4934484;29;20082;-67
2021/09/09 12:32:29;;;;;;;7.63;4.05;;;;;;;;;;4928646;29;20402;-73
2021/09/09 12:35:13;;;;;;;7.32;3.38;;;;;;;;;;4932949;29;20096;-70
2021/09/09 12:37:39;;;;;;;6.43;3.22;;;;;;;;;;4962832;28;20618;-65
2021/09/09 12:40:06;;;;;;;16.38;4.03;;;;;;;;;;4969603;28;20039;-70
2021/09/09 12:42:59;;;;;;;11.85;3.38;;;;;;;;;;4972867;28;20062;-70
2021/09/09 12:45:40;;;;;;;18.10;3.47;;;;;;;;;;4929920;29;20042;-76
2021/09/09 12:48:09;;;;;;;8.38;3.58;;;;;;;;;;4915020;29;20549;-75
2021/09/09 12:50:36;;;;;;;9.45;3.45;;;;;;;;;;4936921;29;20063;-70
2021/09/09 12:53:10;;;;;;;13.98;3.60;;;;;;;;;;4933472;29;20038;-74
2021/09/09 12:55:42;;;;;;;17.42;3.95;;;;;;;;;;4913793;29;20070;-78
2021/09/09 12:58:15;;;;;;;13.05;3.17;;;;;;;;;;4915725;29;20036;-75
2021/09/09 13:00:41;;;;;;;22.33;3.65;;;;;;;;;;4913215;29;20039;-85
2021/09/09 13:03:28;;;;;;;18.17;3.60;;;;;;;;;;4928431;29;20040;-68
2021/09/09 13:05:54;;;;;;;15.68;3.50;;;;;;;;;;4926604;29;20107;-81
2021/09/09 13:08:20;;;;;;;13.57;3.38;;;;;;;;;;4923833;29;20043;-79
2021/09/09 13:10:51;;;;;;;15.75;3.50;;;;;;;;;;4911361;29;20432;-77
2021/09/09 13:13:20;;;;;;;12.75;4.05;;;;;;;;;;4925891;29;20569;-82
2021/09/09 13:15:49;;;;;;;14.18;3.67;;;;;;;;;;4921597;28;20042;-83
2021/09/09 13:18:16;;;;;;;15.65;3.92;;;;;;;;;;4974267;28;20105;-79
2021/09/09 13:20:50;;;;;;;8.32;3.13;;;;;;;;;;4972443;28;20058;-79
2021/09/09 13:23:17;;;;;;;16.70;3.70;;;;;;;;;;4965989;28;20019;-78
2021/09/09 13:25:43;;;;;;;12.15;3.88;;;;;;;;;;4967614;28;20022;-79
2021/09/09 13:28:18;;;;;;;8.02;3.67;;;;;;;;;;4953705;28;20031;-83
2021/09/09 13:30:44;;;;;;;13.05;3.58;;;;;;;;;;4966390;28;20027;-76
2021/09/09 13:33:11;;;;;;;8.32;3.17;;;;;;;;;;4972521;28;20031;-78
2021/09/09 13:35:38;;;;;;;6.03;3.20;;;;;;;;;;4973963;28;20062;-78
2021/09/09 13:38:05;;;;;;;8.32;3.13;;;;;;;;;;4973502;28;20041;-80
2021/09/09 13:40:31;;;;;;;14.70;3.78;;;;;;;;;;4973897;28;20477;-67
2021/09/09 13:42:57;;;;;;;8.98;3.70;;;;;;;;;;4972892;28;20023;-81
2021/09/09 13:45:24;;;;;;;16.23;3.58;;;;;;;;;;4972960;28;20106;-77
2021/09/09 13:47:50;;;;;;;15.27;3.40;;;;;;;;;;4972948;28;20350;-80
2021/09/09 13:50:17;;;;;;;10.85;3.45;;;;;;;;;;4968087;28;20037;-77
2021/09/09 13:52:43;;;;;;;10.75;3.85;;;;;;;;;;4971120;28;20050;-82
2021/09/09 13:55:10;;;;;;;11.20;4.10;;;;;;;;;;4967750;28;20521;-68
2021/09/09 13:57:37;;;;;;;18.45;3.65;;;;;;;;;;4968492;28;20037;-74
2021/09/09 14:00:04;;;;;;;10.90;3.55;;;;;;;;;;4976493;28;20405;-74
2021/09/09 14:02:30;;;;;;;8.57;3.20;;;;;;;;;;4971751;28;20118;-68
2021/09/09 14:04:56;;;;;;;10.73;4.10;;;;;;;;;;4972420;28;20105;-81
2021/09/09 14:07:23;;;;;;;8.77;3.47;;;;;;;;;;4972946;28;20482;-81
2021/09/09 14:09:50;;;;;;;12.18;3.70;;;;;;;;;;4969928;28;20033;-74
2021/09/09 14:12:17;;;;;;;16.48;3.65;;;;;;;;;;4972552;28;20057;-67
2021/09/09 14:14:43;;;;;;;8.10;3.35;;;;;;;;;;4973458;28;20031;-76
2021/09/09 14:17:09;;;;;;;6.15;2.88;;;;;;;;;;4972962;28;20034;-74
2021/09/09 14:19:35;;;;;;;16.90;3.65;;;;;;;;;;4967930;28;20023;-66
2021/09/09 14:22:01;;;;;;;46.72;4.75;;;;;;;;;;4967135;28;20082;-69
2021/09/09 14:24:27;;;;;;;8.00;3.08;;;;;;;;;;4972565;28;20102;-67
2021/09/09 14:26:53;;;;;;;10.45;3.20;;;;;;;;;;4972977;28;20496;-74
2021/09/09 14:29:19;;;;;;;15.25;3.40;;;;;;;;;;4972100;28;20060;-77
2021/09/09 14:31:45;;;;;;;11.65;3.20;;;;;;;;;;4973059;28;20015;-72
2021/09/09 14:34:12;;;;;;;11.93;3.30;;;;;;;;;;4964178;28;20108;-70
2021/09/09 14:36:38;;;;;;;7.88;3.42;;;;;;;;;;4972855;28;20035;-67
2021/09/09 14:39:04;;;;;;;10.07;5.00;;;;;;;;;;4971504;28;20022;-68
2021/09/09 14:41:30;;;;;;;7.72;3.20;;;;;;;;;;4972671;28;20024;-75
2021/09/09 14:43:56;;;;;;;7.30;3.42;;;;;;;;;;4970149;28;20105;-79
2021/09/09 14:46:22;;;;;;;13.18;5.10;;;;;;;;;;4973063;28;20039;-69
2021/09/09 14:48:48;;;;;;;8.85;3.55;;;;;;;;;;4972036;28;20023;-67
2021/09/09 14:51:15;;;;;;;10.38;3.40;;;;;;;;;;4973081;28;20026;-76
2021/09/09 14:53:41;;;;;;;10.05;3.65;;;;;;;;;;4969736;28;20098;-66
2021/09/09 14:56:10;;;;;;;10.25;3.00;;;;;;;;;;4968033;28;20034;-80
2021/09/09 14:58:36;;;;;;;19.98;3.63;;;;;;;;;;4971737;28;20140;-69
2021/09/09 15:01:02;;;;;;;8.23;3.10;;;;;;;;;;4972901;28;20489;-72
2021/09/09 15:03:28;;;;;;;13.68;3.30;;;;;;;;;;4971494;28;20125;-75
2021/09/09 15:05:54;;;;;;;16.08;3.63;;;;;;;;;;4972634;28;20030;-79
2021/09/09 15:08:20;;;;;;;6.07;3.05;;;;;;;;;;4972570;28;20031;-75
2021/09/09 15:10:46;;;;;;;11.52;3.38;;;;;;;;;;4972672;28;20097;-76
2021/09/09 15:13:16;;;;;;;8.15;3.30;;;;;;;;;;4972178;28;20041;-77
2021/09/09 15:15:42;;;;;;;8.20;3.05;;;;;;;;;;4970713;28;20050;-81
2021/09/09 15:18:08;;;;;;;7.63;3.00;;;;;;;;;;4973483;28;20385;-71
2021/09/09 15:20:34;;;;;;;20.63;3.90;;;;;;;;;;4976062;28;20022;-73
2021/09/09 15:23:00;;;;;;;10.85;2.90;;;;;;;;;;4975938;28;20030;-79
2021/09/09 15:25:26;;;;;;;11.20;3.10;;;;;;;;;;4969962;28;20082;-79
2021/09/09 15:27:52;;;;;;;11.18;3.75;;;;;;;;;;4975741;28;20031;-82
2021/09/09 15:30:18;;;;;;;10.05;3.13;;;;;;;;;;4976252;28;20089;-81